createdAt,value
2019-05-03T00:05:02.288Z,10.40
2019-05-03T00:10:22.357Z,9.90
2019-05-03T00:15:58.938Z,9.07
2019-05-03T00:21:15.199Z,8.67
2019-05-03T00:26:31.820Z,7.63
2019-05-03T00:31:47.881Z,8.27
2019-05-03T00:37:07.700Z,7.33
2019-05-03T00:42:26.774Z,7.90
2019-05-03T00:47:43.798Z,8.37
2019-05-03T00:53:02.989Z,7.43
2019-05-03T00:58:19.286Z,7.73
2019-05-03T01:03:36.969Z,8.20
2019-05-03T01:08:55.285Z,7.57
2019-05-03T01:14:13.342Z,8.47
2019-05-03T01:19:32.023Z,7.93
2019-05-03T01:24:53.063Z,8.10
2019-05-03T01:30:12.283Z,6.80
2019-05-03T01:35:33.698Z,7.97
2019-05-03T01:40:49.703Z,8.07
2019-05-03T01:46:05.424Z,7.73
2019-05-03T01:51:41.958Z,7.50
2019-05-03T01:57:02.253Z,7.40
2019-05-03T02:02:41.967Z,7.17
2019-05-03T02:07:59.080Z,7.20
2019-05-03T02:13:15.027Z,7.77
2019-05-03T02:18:31.824Z,8.00
2019-05-03T02:23:47.748Z,7.43
2019-05-03T02:29:03.488Z,7.10
2019-05-03T02:34:19.661Z,7.90
2019-05-03T02:39:35.836Z,8.20
2019-05-03T02:44:55.365Z,8.07
2019-05-03T02:50:18.903Z,7.53
2019-05-03T02:55:36.394Z,8.00
2019-05-03T03:00:59.746Z,7.40
2019-05-03T03:06:19.699Z,8.10
2019-05-03T03:11:39.927Z,9.27
2019-05-03T03:16:59.724Z,7.70
2019-05-03T03:22:18.219Z,8.53
2019-05-03T03:27:36.219Z,8.47
2019-05-03T03:32:52.052Z,9.10
2019-05-03T03:38:25.899Z,9.07
2019-05-03T03:43:41.332Z,8.63
2019-05-03T03:48:59.048Z,9.40
2019-05-03T03:54:19.405Z,9.27
2019-05-03T03:59:36.591Z,9.20
2019-05-03T04:04:52.675Z,9.63
2019-05-03T04:10:10.863Z,9.83
2019-05-03T04:15:48.172Z,8.40
2019-05-03T04:21:05.518Z,9.23
2019-05-03T04:26:29.019Z,9.67
2019-05-03T04:31:41.480Z,10.37
2019-05-03T04:36:57.521Z,9.00
2019-05-03T04:42:16.642Z,10.50
2019-05-03T04:47:32.441Z,9.87
2019-05-03T04:52:48.783Z,8.87
2019-05-03T04:58:07.867Z,9.63
2019-05-03T05:03:26.497Z,9.40
2019-05-03T05:08:42.286Z,9.80
2019-05-03T05:13:58.190Z,9.97
2019-05-03T05:19:16.684Z,10.53
2019-05-03T05:24:32.286Z,9.60
2019-05-03T05:29:48.111Z,9.43
2019-05-03T05:35:05.184Z,9.53
2019-05-03T05:40:24.565Z,10.27
2019-05-03T05:45:40.805Z,9.30
2019-05-03T05:50:56.845Z,8.33
2019-05-03T05:56:30.339Z,9.47
2019-05-03T06:01:51.801Z,9.80
2019-05-03T06:07:26.299Z,8.17
2019-05-03T06:13:10.815Z,9.17
2019-05-03T06:18:45.212Z,9.57
2019-05-03T06:24:05.488Z,8.50
2019-05-03T06:29:21.717Z,9.20
2019-05-03T06:34:37.754Z,9.67
2019-05-03T06:39:54.885Z,9.93
2019-05-03T06:45:11.821Z,9.37
2019-05-03T06:50:29.075Z,10.33
2019-05-03T06:55:48.352Z,9.40
2019-05-03T07:01:27.534Z,9.30
2019-05-03T07:07:08.737Z,9.33
2019-05-03T07:12:25.107Z,8.27
2019-05-03T07:17:41.293Z,9.27
2019-05-03T07:22:57.516Z,8.83
2019-05-03T07:28:14.999Z,8.80
2019-05-03T07:33:34.751Z,8.00
2019-05-03T07:38:50.645Z,7.43
2019-05-03T07:44:06.549Z,6.37
2019-05-03T07:49:24.810Z,6.10
2019-05-03T07:54:40.584Z,5.63
2019-05-03T07:59:56.685Z,5.50
2019-05-03T08:05:15.535Z,5.93
2019-05-03T08:10:31.734Z,6.27
2019-05-03T08:15:47.648Z,5.47
2019-05-03T08:21:05.596Z,6.10
2019-05-03T08:26:21.987Z,6.60
2019-05-03T08:31:55.528Z,6.37
2019-05-03T08:37:15.422Z,7.07
2019-05-03T08:42:35.168Z,7.30
2019-05-03T08:47:51.415Z,6.23
2019-05-03T08:53:07.179Z,6.50
2019-05-03T08:58:25.428Z,6.27
2019-05-03T09:03:40.962Z,6.37
2019-05-03T09:08:58.410Z,5.93
2019-05-03T09:14:15.161Z,6.00
2019-05-03T09:19:32.217Z,6.07
2019-05-03T09:24:48.485Z,5.53
2019-05-03T09:30:05.030Z,6.47
2019-05-03T09:35:30.514Z,6.00
2019-05-03T09:40:38.563Z,6.13
2019-05-03T09:45:56.171Z,5.47
2019-05-03T09:51:11.974Z,6.13
2019-05-03T09:56:55.316Z,6.30
2019-05-03T10:02:05.334Z,5.33
2019-05-03T10:07:21.356Z,5.87
2019-05-03T10:12:43.682Z,5.03
2019-05-03T10:18:00.677Z,5.23
2019-05-03T10:23:35.840Z,5.13
2019-05-03T10:28:55.308Z,4.47
2019-05-03T10:34:11.133Z,3.70
2019-05-03T10:39:26.991Z,4.30
2019-05-03T10:44:44.928Z,4.13
2019-05-03T10:50:00.641Z,4.17
2019-05-03T10:55:16.387Z,4.17
2019-05-03T11:00:47.751Z,3.90
2019-05-03T11:05:49.992Z,4.37
2019-05-03T11:11:05.990Z,4.50
2019-05-03T11:16:22.210Z,3.77
2019-05-03T11:21:38.392Z,3.87
2019-05-03T11:26:56.015Z,3.40
2019-05-03T11:32:25.439Z,3.73
2019-05-03T11:37:45.361Z,3.93
2019-05-03T11:43:04.631Z,3.90
2019-05-03T11:48:20.607Z,3.10
2019-05-03T11:53:36.280Z,3.50
2019-05-03T11:58:55.106Z,3.10
2019-05-03T12:04:11.151Z,2.83
2019-05-03T12:09:26.775Z,3.63
2019-05-03T12:14:42.802Z,3.90
2019-05-03T12:20:01.226Z,4.13
2019-05-03T12:25:18.478Z,4.50
2019-05-03T12:30:35.948Z,4.10
2019-05-03T12:35:51.733Z,3.47
2019-05-03T12:41:07.753Z,3.13
2019-05-03T12:46:26.321Z,3.13
2019-05-03T12:51:42.362Z,3.10
2019-05-03T12:56:58.227Z,3.63
2019-05-03T13:02:35.501Z,3.97
2019-05-03T13:08:08.676Z,4.67
2019-05-03T13:13:27.534Z,4.00
2019-05-03T13:18:45.793Z,4.67
2019-05-03T13:24:02.247Z,4.60
2019-05-03T13:29:18.143Z,3.10
2019-05-03T13:34:35.366Z,3.80
2019-05-03T13:39:50.989Z,3.47
2019-05-03T13:45:07.715Z,4.57
2019-05-03T13:50:25.018Z,3.57
2019-05-03T13:55:40.906Z,3.90
2019-05-03T14:00:56.795Z,4.07
2019-05-03T14:06:12.463Z,4.27
2019-05-03T14:11:28.321Z,4.30
2019-05-03T14:16:45.425Z,4.17
2019-05-03T14:22:05.197Z,4.33
2019-05-03T14:27:20.774Z,3.07
2019-05-03T14:32:36.829Z,3.10
2019-05-03T14:37:52.515Z,3.57
2019-05-03T14:43:08.710Z,3.40
2019-05-03T14:48:24.977Z,3.40
2019-05-03T14:53:41.525Z,2.63
2019-05-03T14:59:15.330Z,3.47
2019-05-03T15:04:31.109Z,3.67
2019-05-03T15:09:46.976Z,3.20
2019-05-03T15:15:02.919Z,2.97
2019-05-03T15:20:18.713Z,3.50
2019-05-03T15:25:34.970Z,3.10
2019-05-03T15:30:50.538Z,3.27
2019-05-03T15:36:06.473Z,3.10
2019-05-03T15:41:22.252Z,3.37
2019-05-03T15:46:49.934Z,2.90
2019-05-03T15:52:06.062Z,2.37
2019-05-03T15:57:21.912Z,2.60
2019-05-03T16:02:40.539Z,2.27
2019-05-03T16:07:56.342Z,2.07
2019-05-03T16:13:14.306Z,2.27
2019-05-03T16:18:30.612Z,2.00
2019-05-03T16:23:46.953Z,1.93
2019-05-03T16:29:12.163Z,2.27
2019-05-03T16:34:28.102Z,2.10
2019-05-03T16:39:45.621Z,1.73
2019-05-03T16:45:05.454Z,2.27
2019-05-03T16:50:21.243Z,2.10
2019-05-03T16:55:37.306Z,1.90
2019-05-03T17:00:55.273Z,2.03
2019-05-03T17:06:39.817Z,2.17
2019-05-03T17:12:34.728Z,2.20
2019-05-03T17:17:55.313Z,3.20
2019-05-03T17:23:15.469Z,2.60
2019-05-03T17:28:31.656Z,2.43
2019-05-03T17:33:56.891Z,2.60
2019-05-03T17:39:25.514Z,3.07
2019-05-03T17:44:49.330Z,2.40
2019-05-03T17:50:09.299Z,2.40
2019-05-03T18:01:18.803Z,1.90
2019-05-03T18:06:38.475Z,1.80
2019-05-03T18:11:56.324Z,2.10
2019-05-03T18:17:14.790Z,1.90
2019-05-03T18:22:32.181Z,2.73
2019-05-03T18:27:48.018Z,1.60
2019-05-03T18:33:04.935Z,1.80
2019-05-03T18:38:25.127Z,1.50
2019-05-03T18:43:54.429Z,1.70
2019-05-03T18:49:11.283Z,1.80
2019-05-03T18:54:27.738Z,2.47
2019-05-03T18:59:45.010Z,1.80
2019-05-03T19:05:05.090Z,1.67
2019-05-03T19:10:40.945Z,1.40
2019-05-03T19:15:57.206Z,1.23
2019-05-03T19:21:14.987Z,1.90
2019-05-03T19:26:31.751Z,1.60
2019-05-03T19:31:48.107Z,1.90
2019-05-03T19:37:05.882Z,1.57
2019-05-03T19:42:27.402Z,1.47
2019-05-03T19:47:44.707Z,1.50
2019-05-03T19:53:26.890Z,1.73
2019-05-03T19:58:44.224Z,1.60
2019-05-03T20:04:10.173Z,1.80
2019-05-03T20:09:27.014Z,1.77
2019-05-03T20:14:46.180Z,1.90
2019-05-03T20:20:01.803Z,1.70
2019-05-03T20:25:17.621Z,2.00
2019-05-03T20:30:34.812Z,1.70
2019-05-03T20:35:53.782Z,2.03
2019-05-03T20:41:08.888Z,2.23
2019-05-03T20:46:29.625Z,2.40
2019-05-03T20:51:51.288Z,1.90
2019-05-03T20:57:06.093Z,1.70
2019-05-03T21:02:22.321Z,1.80
2019-05-03T21:07:38.195Z,1.90
2019-05-03T21:12:54.507Z,2.47
2019-05-03T21:18:20.925Z,3.10
2019-05-03T21:23:41.115Z,3.17
2019-05-03T21:28:57.291Z,3.53
2019-05-03T21:34:14.756Z,3.23
2019-05-03T21:39:30.590Z,3.37
2019-05-03T21:44:46.113Z,3.17
2019-05-03T21:50:04.656Z,2.93
2019-05-03T21:55:21.045Z,3.10
2019-05-03T22:01:00.329Z,2.80
2019-05-03T22:06:17.862Z,3.17
2019-05-03T22:11:35.476Z,3.53
2019-05-03T22:17:14.788Z,3.37
2019-05-03T22:22:37.032Z,3.00
2019-05-03T22:27:54.659Z,3.60
2019-05-03T22:33:10.754Z,3.83
2019-05-03T22:38:26.231Z,3.50
2019-05-03T22:43:45.528Z,2.93
2019-05-03T22:49:05.081Z,3.20
2019-05-03T22:54:27.201Z,3.37
2019-05-03T22:59:44.812Z,3.57
2019-05-03T23:05:00.865Z,3.20
2019-05-03T23:10:17.547Z,3.73
2019-05-03T23:15:34.773Z,3.53
2019-05-03T23:20:59.639Z,3.60
2019-05-03T23:26:18.186Z,3.20
2019-05-03T23:31:34.428Z,3.23
2019-05-03T23:36:50.245Z,3.30
2019-05-03T23:42:06.697Z,2.77
2019-05-03T23:47:37.160Z,3.00
2019-05-03T23:52:54.520Z,3.30
2019-05-03T23:58:10.776Z,3.00
